createdAt,value
2018-10-11T00:01:22.103Z,16.67
2018-10-11T00:03:50.395Z,19.20
2018-10-11T00:06:18.468Z,17.00
2018-10-11T00:08:46.595Z,19.15
2018-10-11T00:11:14.902Z,17.75
2018-10-11T00:13:42.911Z,19.52
2018-10-11T00:16:11.538Z,17.60
2018-10-11T00:18:39.860Z,18.23
2018-10-11T00:21:07.898Z,18.57
2018-10-11T00:23:35.975Z,19.85
2018-10-11T00:26:04.263Z,18.02
2018-10-11T00:28:32.455Z,17.65
2018-10-11T00:31:00.495Z,20.48
2018-10-11T00:33:28.719Z,20.02
2018-10-11T00:35:56.777Z,20.82
2018-10-11T00:38:24.837Z,19.70
2018-10-11T00:40:52.915Z,19.67
2018-10-11T00:43:20.955Z,19.98
2018-10-11T00:45:48.976Z,20.70
2018-10-11T00:48:17.050Z,20.37
2018-10-11T00:50:45.095Z,20.92
2018-10-11T00:53:13.148Z,18.55
2018-10-11T00:55:41.223Z,20.90
2018-10-11T00:58:09.442Z,19.15
2018-10-11T01:00:37.665Z,19.60
2018-10-11T01:03:05.960Z,19.23
2018-10-11T01:05:34.073Z,20.43
2018-10-11T01:08:02.150Z,20.55
2018-10-11T01:10:30.262Z,20.75
2018-10-11T01:12:58.388Z,20.52
2018-10-11T01:15:26.496Z,20.77
2018-10-11T01:17:54.588Z,21.25
2018-10-11T01:20:22.687Z,20.48
2018-10-11T01:22:50.727Z,20.20
2018-10-11T01:25:18.887Z,20.75
2018-10-11T01:27:46.980Z,20.95
2018-10-11T01:30:15.045Z,19.77
2018-10-11T01:32:43.140Z,20.68
2018-10-11T01:35:11.207Z,22.20
2018-10-11T01:37:39.251Z,19.32
2018-10-11T01:40:07.411Z,20.45
2018-10-11T01:42:35.419Z,21.95
2018-10-11T01:45:03.451Z,21.75
2018-10-11T01:47:31.644Z,20.95
2018-10-11T01:49:59.695Z,21.37
2018-10-11T01:52:28.650Z,20.65
2018-10-11T01:54:56.767Z,20.40
2018-10-11T01:57:24.795Z,20.57
2018-10-11T01:59:53.494Z,21.65
2018-10-11T02:02:22.140Z,20.50
2018-10-11T02:04:51.207Z,21.30
2018-10-11T02:07:19.371Z,22.40
2018-10-11T02:09:47.412Z,21.57
2018-10-11T02:12:15.445Z,22.00
2018-10-11T02:14:43.490Z,20.12
2018-10-11T02:17:11.563Z,19.55
2018-10-11T02:19:39.669Z,21.52
2018-10-11T02:22:07.744Z,20.82
2018-10-11T02:24:35.886Z,19.32
2018-10-11T02:27:03.946Z,20.62
2018-10-11T02:29:32.007Z,20.90
2018-10-11T02:32:00.148Z,21.30
2018-10-11T02:34:28.090Z,18.50
2018-10-11T02:36:56.240Z,19.15
2018-10-11T02:39:24.622Z,18.12
2018-10-11T02:41:52.679Z,18.85
2018-10-11T02:44:20.970Z,21.48
2018-10-11T02:46:49.182Z,21.25
2018-10-11T02:49:17.263Z,20.72
2018-10-11T02:51:45.322Z,21.93
2018-10-11T02:54:13.622Z,22.05
2018-10-11T02:56:41.652Z,21.93
2018-10-11T02:59:45.244Z,22.17
2018-10-11T03:02:14.495Z,21.70
2018-10-11T03:04:45.474Z,19.37
2018-10-11T03:07:13.749Z,20.77
2018-10-11T03:09:42.652Z,19.67
2018-10-11T03:12:11.119Z,19.07
2018-10-11T03:14:39.310Z,19.10
2018-10-11T03:17:07.521Z,19.10
2018-10-11T03:19:35.758Z,19.62
2018-10-11T03:22:03.804Z,20.23
2018-10-11T03:24:31.878Z,13.30
2018-10-11T03:27:01.002Z,19.25
2018-10-11T03:29:30.205Z,19.27
2018-10-11T03:31:58.262Z,14.38
2018-10-11T03:34:27.439Z,19.35
2018-10-11T03:36:56.037Z,18.42
2018-10-11T03:39:24.184Z,19.20
2018-10-11T03:41:52.271Z,18.98
2018-10-11T03:44:20.272Z,19.50
2018-10-11T03:46:48.344Z,20.10
2018-10-11T03:49:16.366Z,20.48
2018-10-11T03:51:44.468Z,18.45
2018-10-11T03:54:12.635Z,19.45
2018-10-11T03:56:40.676Z,19.55
2018-10-11T03:59:08.688Z,20.08
2018-10-11T04:01:36.788Z,18.10
2018-10-11T04:04:04.808Z,19.37
2018-10-11T04:06:32.995Z,16.75
2018-10-11T04:09:01.679Z,18.57
2018-10-11T04:11:29.747Z,19.80
2018-10-11T04:13:57.794Z,20.12
2018-10-11T04:16:25.844Z,19.92
2018-10-11T04:18:53.871Z,19.20
2018-10-11T04:21:21.907Z,19.50
2018-10-11T04:23:49.965Z,15.95
2018-10-11T04:26:17.982Z,19.98
2018-10-11T04:28:46.035Z,18.02
2018-10-11T04:31:14.394Z,19.57
2018-10-11T04:33:42.525Z,19.42
2018-10-11T04:36:10.631Z,17.65
2018-10-11T04:38:38.940Z,20.55
2018-10-11T04:41:07.096Z,20.30
2018-10-11T04:43:35.284Z,20.50
2018-10-11T04:46:03.579Z,20.05
2018-10-11T04:48:31.610Z,17.87
2018-10-11T04:50:59.630Z,20.30
2018-10-11T04:53:27.832Z,17.67
2018-10-11T04:55:55.843Z,15.25
2018-10-11T04:58:24.044Z,17.75
2018-10-11T05:00:52.092Z,20.77
2018-10-11T05:03:20.236Z,18.82
2018-10-11T05:05:48.254Z,19.73
2018-10-11T05:08:16.299Z,19.25
2018-10-11T05:10:44.731Z,18.62
2018-10-11T05:13:13.207Z,19.07
2018-10-11T05:15:42.532Z,19.92
2018-10-11T05:18:10.651Z,14.15
2018-10-11T05:20:38.819Z,18.00
2018-10-11T05:23:07.079Z,17.65
2018-10-11T05:25:35.140Z,17.65
2018-10-11T05:28:03.178Z,16.95
2018-10-11T05:30:31.514Z,18.32
2018-10-11T05:32:59.657Z,18.75
2018-10-11T05:35:27.895Z,18.73
2018-10-11T05:37:55.934Z,18.70
2018-10-11T05:40:23.966Z,18.00
2018-10-11T05:42:51.966Z,17.40
2018-10-11T05:45:21.568Z,16.70
2018-10-11T05:47:49.611Z,18.30
2018-10-11T05:50:17.951Z,18.35
2018-10-11T05:52:46.701Z,16.87
2018-10-11T05:55:14.957Z,17.62
2018-10-11T05:57:43.363Z,15.63
2018-10-11T06:00:11.840Z,14.83
2018-10-11T06:02:51.723Z,14.93
2018-10-11T06:05:20.067Z,14.80
2018-10-11T06:07:48.447Z,16.30
2018-10-11T06:10:16.532Z,15.20
2018-10-11T06:12:44.728Z,14.90
2018-10-11T06:15:13.167Z,17.13
2018-10-11T06:17:42.104Z,15.00
2018-10-11T06:20:10.483Z,12.65
2018-10-11T06:22:38.544Z,15.25
2018-10-11T06:25:07.487Z,14.98
2018-10-11T06:27:35.575Z,14.50
2018-10-11T06:30:04.567Z,14.05
2018-10-11T06:32:32.739Z,13.70
2018-10-11T06:35:00.850Z,14.97
2018-10-11T06:37:29.099Z,14.70
2018-10-11T06:39:57.572Z,13.38
2018-10-11T06:42:25.852Z,14.03
2018-10-11T06:44:54.658Z,12.03
2018-10-11T06:47:22.802Z,15.23
2018-10-11T06:49:51.185Z,13.70
2018-10-11T06:52:19.371Z,14.70
2018-10-11T06:54:47.517Z,13.83
2018-10-11T06:57:15.587Z,14.28
2018-10-11T06:59:43.967Z,12.95
2018-10-11T07:02:12.081Z,14.18
2018-10-11T07:04:40.217Z,14.13
2018-10-11T07:07:08.319Z,15.10
2018-10-11T07:09:36.672Z,13.95
2018-10-11T07:12:04.687Z,12.77
2018-10-11T07:14:33.024Z,13.30
2018-10-11T07:17:01.664Z,13.22
2018-10-11T07:19:29.764Z,14.10
2018-10-11T07:21:58.010Z,13.58
2018-10-11T07:24:26.050Z,13.55
2018-10-11T07:26:54.107Z,12.53
2018-10-11T07:29:22.155Z,15.13
2018-10-11T07:31:50.455Z,12.78
2018-10-11T07:34:18.715Z,14.58
2018-10-11T07:36:46.783Z,14.45
2018-10-11T07:39:14.831Z,12.88
2018-10-11T07:41:43.264Z,12.10
2018-10-11T07:44:11.305Z,12.45
2018-10-11T07:46:39.714Z,12.63
2018-10-11T07:49:08.787Z,12.05
2018-10-11T07:51:37.157Z,11.80
2018-10-11T07:54:05.184Z,12.37
2018-10-11T07:56:33.719Z,12.65
2018-10-11T07:59:02.297Z,11.85
2018-10-11T08:01:31.005Z,12.23
2018-10-11T08:03:59.255Z,10.90
2018-10-11T08:06:27.671Z,12.28
2018-10-11T08:08:55.711Z,12.37
2018-10-11T08:11:24.752Z,11.55
2018-10-11T08:13:52.975Z,12.60
2018-10-11T08:16:21.305Z,10.88
2018-10-11T08:18:49.383Z,11.53
2018-10-11T08:21:17.810Z,11.40
2018-10-11T08:23:45.887Z,11.48
2018-10-11T08:26:14.235Z,10.68
2018-10-11T08:28:42.090Z,11.97
2018-10-11T08:31:11.035Z,11.10
2018-10-11T08:33:39.053Z,11.05
2018-10-11T08:36:07.496Z,10.55
2018-10-11T08:38:35.752Z,10.98
2018-10-11T08:41:03.716Z,8.25
2018-10-11T08:43:32.234Z,10.90
2018-10-11T08:46:01.486Z,10.80
2018-10-11T08:48:29.612Z,11.67
2018-10-11T08:50:57.797Z,10.08
2018-10-11T08:53:25.873Z,9.88
2018-10-11T08:55:54.017Z,10.10
2018-10-11T08:58:22.180Z,9.95
2018-10-11T09:00:50.199Z,9.88
2018-10-11T09:03:18.295Z,10.55
2018-10-11T09:05:46.390Z,11.40
2018-10-11T09:08:14.482Z,9.65
2018-10-11T09:10:42.555Z,10.98
2018-10-11T09:13:10.591Z,10.25
2018-10-11T09:15:38.626Z,10.28
2018-10-11T09:18:06.903Z,10.93
2018-10-11T09:20:34.937Z,10.30
2018-10-11T09:23:03.060Z,9.58
2018-10-11T09:25:31.140Z,10.20
2018-10-11T09:27:59.213Z,9.57
2018-10-11T09:30:27.306Z,8.20
2018-10-11T09:32:55.367Z,9.63
2018-10-11T09:35:23.619Z,9.08
2018-10-11T09:37:51.695Z,8.90
2018-10-11T09:40:19.730Z,8.75
2018-10-11T09:42:48.049Z,9.20
2018-10-11T09:45:16.119Z,9.23
2018-10-11T09:47:44.185Z,8.85
2018-10-11T09:50:12.331Z,8.80
2018-10-11T09:52:40.365Z,10.10
2018-10-11T09:55:08.414Z,8.73
2018-10-11T09:57:37.706Z,8.48
2018-10-11T10:00:13.877Z,9.13
2018-10-11T10:02:41.947Z,9.43
2018-10-11T10:05:10.335Z,8.80
2018-10-11T10:07:38.992Z,8.23
2018-10-11T10:10:07.479Z,8.78
2018-10-11T10:12:35.545Z,8.73
2018-10-11T10:15:03.820Z,9.35
2018-10-11T10:17:32.498Z,8.75
2018-10-11T10:20:00.801Z,9.28
2018-10-11T10:22:29.055Z,9.30
2018-10-11T10:24:57.250Z,9.35
2018-10-11T10:27:25.521Z,8.68
2018-10-11T10:29:54.042Z,8.60
2018-10-11T10:32:22.445Z,9.28
2018-10-11T10:34:50.549Z,9.45
2018-10-11T10:37:18.588Z,9.68
2018-10-11T10:39:46.746Z,7.55
2018-10-11T10:42:14.859Z,9.67
2018-10-11T10:44:43.003Z,8.25
2018-10-11T10:47:11.299Z,8.15
2018-10-11T10:49:39.371Z,7.78
2018-10-11T10:52:07.437Z,9.08
2018-10-11T10:54:36.195Z,4.72
2018-10-11T10:57:04.836Z,9.25
2018-10-11T10:59:32.875Z,8.93
2018-10-11T11:02:00.939Z,9.20
2018-10-11T11:04:28.967Z,8.40
2018-10-11T11:06:57.208Z,8.48
2018-10-11T11:09:25.559Z,8.68
2018-10-11T11:11:53.599Z,8.50
2018-10-11T11:14:21.624Z,8.40
2018-10-11T11:16:49.767Z,8.93
2018-10-11T11:19:17.974Z,8.68
2018-10-11T11:21:46.366Z,8.73
2018-10-11T11:24:14.511Z,8.48
2018-10-11T11:26:42.574Z,8.95
2018-10-11T11:29:10.588Z,8.18
2018-10-11T11:31:38.709Z,7.42
2018-10-11T11:34:06.819Z,9.13
2018-10-11T11:36:34.871Z,9.33
2018-10-11T11:39:02.935Z,10.15
2018-10-11T11:41:30.951Z,8.08
2018-10-11T11:43:58.991Z,8.93
2018-10-11T11:46:27.179Z,9.63
2018-10-11T11:48:55.247Z,8.20
2018-10-11T11:51:23.271Z,8.73
2018-10-11T11:53:51.349Z,9.05
2018-10-11T11:56:19.379Z,9.30
2018-10-11T11:58:47.395Z,8.18
2018-10-11T12:01:15.694Z,8.68
2018-10-11T12:03:43.767Z,8.85
2018-10-11T12:06:11.791Z,7.65
2018-10-11T12:08:40.678Z,9.83
2018-10-11T12:11:08.772Z,7.78
2018-10-11T12:13:37.220Z,8.05
2018-10-11T12:16:05.883Z,7.37
2018-10-11T12:18:33.960Z,7.83
2018-10-11T12:21:02.128Z,8.18
2018-10-11T12:23:30.589Z,9.33
2018-10-11T12:25:58.755Z,8.83
2018-10-11T12:28:27.809Z,8.40
2018-10-11T12:30:56.520Z,8.80
2018-10-11T12:33:24.716Z,7.45
2018-10-11T12:35:52.722Z,8.48
2018-10-11T12:38:20.759Z,8.57
2018-10-11T12:40:48.799Z,7.45
2018-10-11T12:43:16.828Z,8.75
2018-10-11T12:45:44.952Z,8.03
2018-10-11T12:48:12.955Z,8.60
2018-10-11T12:50:40.976Z,8.08
2018-10-11T12:53:09.316Z,8.65
2018-10-11T12:55:37.349Z,8.18
2018-10-11T12:58:05.387Z,8.03
2018-10-11T13:00:34.248Z,8.35
2018-10-11T13:03:02.429Z,7.40
2018-10-11T13:05:30.366Z,7.58
2018-10-11T13:07:58.421Z,7.70
2018-10-11T13:10:26.451Z,8.53
2018-10-11T13:12:57.421Z,8.60
2018-10-11T13:15:22.614Z,7.83
2018-10-11T13:17:50.647Z,7.80
2018-10-11T13:20:18.803Z,8.08
2018-10-11T13:22:47.690Z,8.38
2018-10-11T13:25:15.982Z,8.30
2018-10-11T13:27:44.059Z,8.63
2018-10-11T13:30:12.304Z,8.83
2018-10-11T13:32:40.356Z,7.78
2018-10-11T13:35:08.606Z,7.63
2018-10-11T13:37:37.207Z,8.48
2018-10-11T13:40:05.748Z,8.05
2018-10-11T13:42:33.971Z,8.85
2018-10-11T13:45:02.300Z,8.70
2018-10-11T13:47:30.468Z,7.10
2018-10-11T13:49:58.403Z,4.75
2018-10-11T13:52:27.239Z,7.40
2018-10-11T13:54:55.299Z,8.10
2018-10-11T13:57:25.941Z,7.15
2018-10-11T13:59:51.625Z,8.18
2018-10-11T14:02:19.695Z,7.55
2018-10-11T14:04:47.758Z,7.42
2018-10-11T14:07:15.827Z,7.97
2018-10-11T14:09:43.943Z,8.20
2018-10-11T14:12:11.970Z,6.87
2018-10-11T14:14:40.020Z,8.13
2018-10-11T14:17:08.043Z,7.45
2018-10-11T14:19:36.132Z,7.40
2018-10-11T14:22:04.232Z,7.45
2018-10-11T14:24:32.315Z,7.60
2018-10-11T14:27:00.474Z,7.60
2018-10-11T14:29:29.079Z,8.13
2018-10-11T14:31:57.116Z,8.30
2018-10-11T14:34:25.128Z,6.58
2018-10-11T14:36:53.416Z,7.67
2018-10-11T14:39:21.351Z,9.18
2018-10-11T14:41:49.594Z,6.17
2018-10-11T14:44:18.135Z,6.30
2018-10-11T14:46:46.163Z,6.80
2018-10-11T14:49:14.310Z,6.45
2018-10-11T14:51:46.445Z,7.80
2018-10-11T14:54:10.459Z,7.15
2018-10-11T14:56:38.594Z,7.03
2018-10-11T14:59:06.965Z,6.35
2018-10-11T15:01:35.032Z,6.08
2018-10-11T15:04:03.379Z,5.78
2018-10-11T15:06:31.434Z,6.90
2018-10-11T15:08:59.482Z,6.12
2018-10-11T15:11:27.533Z,7.17
2018-10-11T15:13:55.677Z,7.15
2018-10-11T15:16:23.767Z,6.65
2018-10-11T15:18:51.866Z,6.53
2018-10-11T15:21:20.139Z,6.83
2018-10-11T15:23:48.271Z,6.87
2018-10-11T15:26:16.267Z,6.17
2018-10-11T15:28:45.393Z,6.72
2018-10-11T15:31:13.516Z,6.87
2018-10-11T15:33:41.604Z,6.28
2018-10-11T15:36:09.923Z,6.85
2018-10-11T15:38:37.942Z,5.95
2018-10-11T15:41:06.121Z,6.70
2018-10-11T15:43:34.244Z,5.97
2018-10-11T15:46:02.327Z,6.80
2018-10-11T15:48:30.383Z,6.85
2018-10-11T15:50:58.708Z,7.17
2018-10-11T15:53:33.318Z,6.60
2018-10-11T15:56:01.450Z,7.22
2018-10-11T15:58:29.511Z,6.67
2018-10-11T16:00:57.528Z,6.90
2018-10-11T16:03:25.733Z,7.42
2018-10-11T16:05:53.801Z,7.30
2018-10-11T16:08:21.831Z,6.17
2018-10-11T16:10:50.351Z,6.80
2018-10-11T16:13:18.419Z,6.78
2018-10-11T16:15:46.486Z,7.05
2018-10-11T16:18:14.743Z,6.90
2018-10-11T16:20:42.983Z,6.55
2018-10-11T16:23:11.033Z,7.10
2018-10-11T16:25:40.864Z,7.25
2018-10-11T16:28:08.911Z,7.17
2018-10-11T16:30:37.679Z,7.60
2018-10-11T16:33:06.159Z,7.15
2018-10-11T16:35:34.187Z,8.00
2018-10-11T16:38:02.763Z,7.75
2018-10-11T16:40:31.194Z,7.53
2018-10-11T16:42:59.319Z,7.33
2018-10-11T16:45:27.338Z,7.27
2018-10-11T16:47:55.431Z,7.78
2018-10-11T16:50:23.584Z,7.80
2018-10-11T16:52:51.615Z,8.03
2018-10-11T16:55:19.744Z,8.13
2018-10-11T16:57:47.778Z,8.38
2018-10-11T17:00:15.847Z,7.53
2018-10-11T17:02:44.059Z,8.00
2018-10-11T17:05:12.123Z,9.27
2018-10-11T17:07:40.199Z,7.40
2018-10-11T17:10:08.576Z,16.60
2018-10-11T17:12:36.791Z,9.33
2018-10-11T17:15:05.256Z,8.53
2018-10-11T17:17:33.463Z,8.85
2018-10-11T17:20:01.680Z,8.23
2018-10-11T17:22:29.787Z,9.88
2018-10-11T17:24:58.472Z,15.72
2018-10-11T17:27:26.555Z,8.45
2018-10-11T17:29:54.698Z,8.30
2018-10-11T17:32:23.345Z,8.93
2018-10-11T17:34:51.699Z,8.93
2018-10-11T17:37:19.752Z,9.38
2018-10-11T17:39:48.092Z,9.45
2018-10-11T17:42:16.379Z,9.85
2018-10-11T17:44:45.256Z,9.67
2018-10-11T17:47:14.139Z,8.73
2018-10-11T17:49:42.943Z,8.98
2018-10-11T17:52:10.975Z,9.85
2018-10-11T17:54:43.707Z,9.50
2018-10-11T17:57:12.400Z,9.08
2018-10-11T17:59:40.439Z,8.85
2018-10-11T18:02:08.623Z,8.70
2018-10-11T18:04:36.714Z,8.68
2018-10-11T18:07:04.754Z,9.23
2018-10-11T18:09:33.155Z,9.68
2018-10-11T18:12:01.245Z,9.33
2018-10-11T18:14:29.379Z,9.15
2018-10-11T18:16:57.431Z,9.48
2018-10-11T18:19:26.531Z,9.03
2018-10-11T18:21:54.539Z,8.73
2018-10-11T18:24:22.807Z,9.60
2018-10-11T18:26:50.834Z,9.83
2018-10-11T18:29:18.984Z,9.63
2018-10-11T18:31:47.415Z,9.15
2018-10-11T18:34:15.833Z,10.38
2018-10-11T18:36:47.908Z,9.28
2018-10-11T18:39:16.324Z,9.40
2018-10-11T18:41:44.510Z,8.85
2018-10-11T18:44:13.255Z,9.58
2018-10-11T18:46:41.292Z,9.05
2018-10-11T18:49:09.744Z,9.33
2018-10-11T18:51:37.852Z,9.40
2018-10-11T18:54:05.909Z,9.43
2018-10-11T18:56:33.991Z,10.40
2018-10-11T18:59:02.332Z,9.73
2018-10-11T19:01:30.399Z,9.13
2018-10-11T19:03:58.551Z,9.78
2018-10-11T19:06:26.994Z,10.35
2018-10-11T19:08:58.893Z,9.55
2018-10-11T19:11:26.968Z,9.45
2018-10-11T19:13:57.055Z,9.90
2018-10-11T19:16:26.159Z,10.43
2018-10-11T19:18:54.218Z,8.75
2018-10-11T19:21:26.328Z,9.50
2018-10-11T19:23:54.378Z,9.20
2018-10-11T19:26:22.421Z,10.18
2018-10-11T19:28:51.426Z,10.10
2018-10-11T19:31:19.558Z,10.53
2018-10-11T19:33:47.771Z,9.15
2018-10-11T19:36:16.025Z,9.80
2018-10-11T19:38:44.042Z,10.13
2018-10-11T19:41:12.088Z,9.75
2018-10-11T19:43:40.234Z,10.35
2018-10-11T19:46:08.329Z,10.18
2018-10-11T19:48:36.572Z,9.90
2018-10-11T19:51:04.617Z,9.50
2018-10-11T19:53:32.922Z,10.52
2018-10-11T19:56:01.621Z,9.67
2018-10-11T19:58:29.714Z,9.80
2018-10-11T20:00:57.781Z,10.25
2018-10-11T20:03:25.947Z,9.78
2018-10-11T20:05:54.013Z,9.30
2018-10-11T20:08:22.115Z,10.30
2018-10-11T20:10:50.103Z,9.20
2018-10-11T20:13:18.395Z,8.88
2018-10-11T20:15:46.568Z,9.43
2018-10-11T20:18:14.988Z,10.38
2018-10-11T20:20:43.035Z,9.48
2018-10-11T20:23:11.150Z,9.30
2018-10-11T20:25:39.472Z,10.20
2018-10-11T20:28:07.515Z,9.60
2018-10-11T20:30:35.654Z,9.88
2018-10-11T20:33:03.915Z,9.17
2018-10-11T20:35:31.959Z,7.70
2018-10-11T20:38:00.811Z,9.18
2018-10-11T20:40:28.862Z,8.90
2018-10-11T20:42:57.220Z,8.65
2018-10-11T20:45:25.304Z,9.63
2018-10-11T20:47:53.332Z,9.00
2018-10-11T20:50:21.415Z,9.53
2018-10-11T20:52:49.439Z,9.47
2018-10-11T20:55:17.466Z,9.13
2018-10-11T20:57:45.584Z,9.75
2018-10-11T21:00:14.140Z,8.88
2018-10-11T21:02:42.167Z,9.13
2018-10-11T21:05:10.187Z,9.73
2018-10-11T21:07:38.501Z,8.78
2018-10-11T21:10:07.281Z,9.06
2018-10-11T21:12:35.704Z,8.50
2018-10-11T21:15:03.946Z,9.65
2018-10-11T21:17:31.974Z,9.25
2018-10-11T21:20:00.029Z,9.25
2018-10-11T21:22:28.386Z,9.53
2018-10-11T21:24:56.665Z,8.50
2018-10-11T21:27:24.880Z,9.40
2018-10-11T21:29:53.075Z,9.15
2018-10-11T21:32:21.215Z,9.45
2018-10-11T21:34:49.290Z,9.93
2018-10-11T21:37:17.473Z,9.43
2018-10-11T21:39:45.922Z,10.32
2018-10-11T21:42:14.187Z,9.18
2018-10-11T21:44:42.363Z,8.33
2018-10-11T21:47:10.421Z,9.38
2018-10-11T21:49:38.456Z,9.70
2018-10-11T21:52:06.543Z,8.73
2018-10-11T21:54:34.556Z,8.23
2018-10-11T21:57:02.626Z,8.53
2018-10-11T21:59:30.882Z,10.13
2018-10-11T22:01:58.954Z,8.48
2018-10-11T22:04:26.982Z,8.58
2018-10-11T22:06:55.387Z,7.72
2018-10-11T22:09:24.034Z,7.13
2018-10-11T22:11:52.075Z,8.90
2018-10-11T22:16:54.863Z,8.53
2018-10-11T22:19:23.239Z,7.45
2018-10-11T22:21:51.268Z,8.85
2018-10-11T22:24:19.367Z,7.25
2018-10-11T22:26:47.661Z,8.23
2018-10-11T22:29:15.670Z,8.78
2018-10-11T22:31:43.795Z,8.65
2018-10-11T22:34:11.863Z,7.92
2018-10-11T22:36:39.983Z,7.72
2018-10-11T22:39:10.170Z,7.35
2018-10-11T22:41:38.971Z,7.58
2018-10-11T22:44:07.665Z,7.65
2018-10-11T22:46:35.743Z,7.83
2018-10-11T22:49:03.984Z,7.62
2018-10-11T22:51:31.987Z,7.85
2018-10-11T22:54:00.010Z,7.40
2018-10-11T22:56:28.027Z,7.58
2018-10-11T22:58:56.074Z,8.58
2018-10-11T23:01:24.167Z,7.95
2018-10-11T23:03:52.235Z,7.80
2018-10-11T23:06:20.267Z,7.77
2018-10-11T23:08:48.339Z,8.60
2018-10-11T23:11:16.346Z,8.48
2018-10-11T23:13:44.411Z,8.08
2018-10-11T23:16:12.634Z,7.70
2018-10-11T23:18:41.356Z,7.45
2018-10-11T23:21:09.794Z,7.70
2018-10-11T23:23:38.015Z,8.28
2018-10-11T23:26:06.614Z,7.77
2018-10-11T23:28:34.692Z,8.15
2018-10-11T23:31:02.916Z,7.40
2018-10-11T23:33:31.108Z,9.08
2018-10-11T23:35:59.457Z,7.97
2018-10-11T23:38:27.859Z,8.28
2018-10-11T23:40:55.911Z,8.80
2018-10-11T23:43:25.127Z,8.13
2018-10-11T23:45:53.208Z,7.08
2018-10-11T23:48:21.209Z,9.45
2018-10-11T23:50:49.239Z,8.25
2018-10-11T23:53:17.306Z,8.38
2018-10-11T23:55:45.335Z,8.83
2018-10-11T23:58:13.506Z,8.88
